createdAt,value
2018-10-01T00:01:24.259Z,100988.00
2018-10-01T00:06:18.289Z,100989.00
2018-10-01T00:11:11.519Z,100981.00
2018-10-01T00:16:05.114Z,100983.00
2018-10-01T00:21:03.869Z,100983.00
2018-10-01T00:25:57.120Z,100986.00
2018-10-01T00:30:50.795Z,100988.00
2018-10-01T00:35:44.033Z,100985.00
2018-10-01T00:40:37.298Z,100980.00
2018-10-01T00:45:30.535Z,100981.00
2018-10-01T00:50:23.785Z,100980.00
2018-10-01T00:55:17.011Z,100977.00
2018-10-01T01:00:10.297Z,100976.00
2018-10-01T01:05:03.598Z,100976.00
2018-10-01T01:09:56.815Z,100965.00
2018-10-01T01:14:50.046Z,100961.00
2018-10-01T01:19:43.295Z,100962.00
2018-10-01T01:24:36.506Z,100977.00
2018-10-01T01:29:29.767Z,100982.00
2018-10-01T01:34:23.096Z,100987.00
2018-10-01T01:39:16.346Z,100978.00
2018-10-01T01:44:09.544Z,100977.00
2018-10-01T01:49:03.076Z,100981.00
2018-10-01T01:53:56.278Z,100979.00
2018-10-01T01:58:49.616Z,100979.00
2018-10-01T02:03:42.904Z,100977.00
2018-10-01T02:08:36.385Z,100971.00
2018-10-01T02:13:29.607Z,100980.00
2018-10-01T02:18:22.853Z,100986.00
2018-10-01T02:23:16.114Z,100984.00
2018-10-01T02:28:09.381Z,100989.00
2018-10-01T02:33:03.133Z,100987.00
2018-10-01T02:37:56.389Z,100992.00
2018-10-01T02:42:49.625Z,100992.00
2018-10-01T02:47:42.919Z,100989.00
2018-10-01T02:52:41.701Z,100989.00
2018-10-01T02:57:34.938Z,100990.00
2018-10-01T03:02:28.220Z,100993.00
2018-10-01T03:07:21.511Z,100994.00
2018-10-01T03:12:14.888Z,100988.00
2018-10-01T03:17:08.117Z,100989.00
2018-10-01T03:22:01.355Z,100986.00
2018-10-01T03:26:54.636Z,100992.00
2018-10-01T03:31:47.859Z,100992.00
2018-10-01T03:36:41.094Z,100993.00
2018-10-01T03:41:34.330Z,101000.00
2018-10-01T03:46:27.567Z,101000.00
2018-10-01T03:51:20.880Z,100992.00
2018-10-01T03:56:14.167Z,100986.00
2018-10-01T04:01:07.537Z,100991.00
2018-10-01T04:06:00.919Z,100988.00
2018-10-01T04:10:54.164Z,100999.00
2018-10-01T04:15:47.437Z,101002.00
2018-10-01T04:20:40.716Z,101011.00
2018-10-01T04:25:34.085Z,101014.00
2018-10-01T04:30:27.451Z,101015.00
2018-10-01T04:35:20.695Z,101021.00
2018-10-01T04:40:15.096Z,101022.00
2018-10-01T04:45:08.384Z,101023.00
2018-10-01T04:50:01.660Z,101032.00
2018-10-01T04:54:54.943Z,101032.00
2018-10-01T04:59:48.209Z,101043.00
2018-10-01T05:04:41.432Z,101052.00
2018-10-01T05:09:34.734Z,101055.00
2018-10-01T05:14:28.019Z,101061.00
2018-10-01T05:19:21.253Z,101071.00
2018-10-01T05:24:14.509Z,101073.00
2018-10-01T05:29:08.124Z,101079.00
2018-10-01T05:34:01.338Z,101076.00
2018-10-01T05:38:54.621Z,101078.00
2018-10-01T05:43:47.868Z,101085.00
2018-10-01T05:48:41.191Z,101094.00
2018-10-01T05:53:34.420Z,101091.00
2018-10-01T05:58:27.693Z,101102.00
2018-10-01T06:03:21.057Z,101108.00
2018-10-01T06:08:14.313Z,101115.00
2018-10-01T06:13:07.567Z,101109.00
2018-10-01T06:18:01.110Z,101117.00
2018-10-01T06:22:54.362Z,101123.00
2018-10-01T06:27:47.591Z,101123.00
2018-10-01T06:32:40.867Z,101134.00
2018-10-01T06:37:34.076Z,101132.00
2018-10-01T06:42:27.369Z,101129.00
2018-10-01T06:47:20.612Z,101139.00
2018-10-01T06:52:13.811Z,101138.00
2018-10-01T06:57:07.055Z,101134.00
2018-10-01T07:02:00.296Z,101154.00
2018-10-01T07:06:53.548Z,101161.00
2018-10-01T07:11:46.881Z,101163.00
2018-10-01T07:16:40.147Z,101172.00
2018-10-01T07:21:33.402Z,101178.00
2018-10-01T07:26:27.108Z,101171.00
2018-10-01T07:31:20.352Z,101168.00
2018-10-01T07:36:13.611Z,101177.00
2018-10-01T07:41:07.080Z,101180.00
2018-10-01T07:46:00.379Z,101183.00
2018-10-01T07:50:53.695Z,101187.00
2018-10-01T07:55:46.892Z,101194.00
2018-10-01T08:00:40.124Z,101200.00
2018-10-01T08:05:33.398Z,101207.00
2018-10-01T08:10:26.633Z,101205.00
2018-10-01T08:15:19.896Z,101213.00
2018-10-01T08:20:13.492Z,101220.00
2018-10-01T08:25:07.127Z,101225.00
2018-10-01T08:30:00.477Z,101234.00
2018-10-01T08:34:53.735Z,101222.00
2018-10-01T08:39:47.245Z,101237.00
2018-10-01T08:44:40.568Z,101235.00
2018-10-01T08:49:39.496Z,101248.00
2018-10-01T08:54:34.639Z,101257.00
2018-10-01T08:59:27.986Z,101261.00
2018-10-01T09:04:21.282Z,101259.00
2018-10-01T09:09:14.565Z,101262.00
2018-10-01T09:14:07.890Z,101282.00
2018-10-01T09:19:01.117Z,101284.00
2018-10-01T09:23:56.255Z,101276.00
2018-10-01T09:28:49.973Z,101290.00
2018-10-01T09:33:43.286Z,101293.00
2018-10-01T09:38:37.295Z,101313.00
2018-10-01T09:43:30.557Z,101303.00
2018-10-01T09:48:23.763Z,101300.00
2018-10-01T09:53:16.958Z,101300.00
2018-10-01T09:58:10.255Z,101304.00
2018-10-01T10:03:03.913Z,101292.00
2018-10-01T10:07:57.215Z,101300.00
2018-10-01T10:12:50.523Z,101291.00
2018-10-01T10:17:43.803Z,101288.00
2018-10-01T10:22:37.131Z,101285.00
2018-10-01T10:27:30.323Z,101299.00
2018-10-01T10:32:23.686Z,101306.00
2018-10-01T10:37:16.909Z,101321.00
2018-10-01T10:42:10.145Z,101308.00
2018-10-01T10:47:03.360Z,101313.00
2018-10-01T10:51:56.618Z,101312.00
2018-10-01T10:56:49.910Z,101298.00
2018-10-01T11:01:43.158Z,101298.00
2018-10-01T11:06:36.408Z,101302.00
2018-10-01T11:11:29.678Z,101309.00
2018-10-01T11:16:22.912Z,101298.00
2018-10-01T11:21:16.276Z,101306.00
2018-10-01T11:26:09.467Z,101302.00
2018-10-01T11:31:02.728Z,101301.00
2018-10-01T11:35:59.856Z,101294.00
2018-10-01T11:40:53.206Z,101300.00
2018-10-01T11:45:46.696Z,101302.00
2018-10-01T11:50:39.947Z,101317.00
2018-10-01T11:55:33.345Z,101326.00
2018-10-01T12:00:26.634Z,101355.00
2018-10-01T12:05:19.904Z,101404.00
2018-10-01T12:10:13.345Z,101426.00
2018-10-01T12:15:06.856Z,101424.00
2018-10-01T12:20:00.051Z,101426.00
2018-10-01T12:24:53.426Z,101425.00
2018-10-01T12:29:46.750Z,101423.00
2018-10-01T12:34:40.165Z,101421.00
2018-10-01T12:39:33.578Z,101420.00
2018-10-01T12:44:27.095Z,101413.00
2018-10-01T12:49:20.377Z,101411.00
2018-10-01T12:54:13.734Z,101409.00
2018-10-01T12:59:07.025Z,101419.00
2018-10-01T13:04:00.256Z,101422.00
2018-10-01T13:08:53.540Z,101424.00
2018-10-01T13:13:46.892Z,101421.00
2018-10-01T13:18:43.502Z,101431.00
2018-10-01T13:23:36.810Z,101439.00
2018-10-01T13:28:30.119Z,101441.00
2018-10-01T13:33:23.370Z,101450.00
2018-10-01T13:38:16.705Z,101439.00
2018-10-01T13:43:09.975Z,101436.00
2018-10-01T13:48:03.331Z,101435.00
2018-10-01T13:52:56.525Z,101434.00
2018-10-01T13:57:49.784Z,101426.00
2018-10-01T14:02:43.071Z,101426.00
2018-10-01T14:07:36.388Z,101427.00
2018-10-01T14:12:29.631Z,101430.00
2018-10-01T14:17:22.878Z,101424.00
2018-10-01T14:22:16.147Z,101418.00
2018-10-01T14:27:09.413Z,101422.00
2018-10-01T14:32:02.766Z,101410.00
2018-10-01T14:36:56.336Z,101408.00
2018-10-01T14:41:50.183Z,101417.00
2018-10-01T14:46:44.083Z,101412.00
2018-10-01T14:51:37.369Z,101414.00
2018-10-01T14:56:30.702Z,101422.00
2018-10-01T15:01:23.931Z,101426.00
2018-10-01T15:06:17.405Z,101425.00
2018-10-01T15:11:10.480Z,101425.00
2018-10-01T15:16:03.870Z,101441.00
2018-10-01T15:20:57.335Z,101444.00
2018-10-01T15:25:50.631Z,101447.00
2018-10-01T15:30:43.895Z,101458.00
2018-10-01T15:35:37.221Z,101454.00
2018-10-01T15:40:30.549Z,101473.00
2018-10-01T15:45:23.801Z,101464.00
2018-10-01T15:50:17.153Z,101468.00
2018-10-01T15:55:10.428Z,101475.00
2018-10-01T16:00:04.799Z,101481.00
2018-10-01T16:04:58.119Z,101487.00
2018-10-01T16:09:51.482Z,101489.00
2018-10-01T16:14:44.763Z,101509.00
2018-10-01T16:19:38.084Z,101508.00
2018-10-01T16:24:31.424Z,101523.00
2018-10-01T16:29:24.679Z,101522.00
2018-10-01T16:34:17.956Z,101533.00
2018-10-01T16:39:12.499Z,101545.00
2018-10-01T16:44:06.006Z,101551.00
2018-10-01T16:48:59.422Z,101547.00
2018-10-01T16:53:52.703Z,101562.00
2018-10-01T16:58:45.947Z,101573.00
2018-10-01T17:03:39.223Z,101579.00
2018-10-01T17:08:32.555Z,101595.00
2018-10-01T17:13:25.862Z,101599.00
2018-10-01T17:18:20.023Z,101616.00
2018-10-01T17:23:13.435Z,101629.00
2018-10-01T17:28:06.712Z,101637.00
2018-10-01T17:32:59.919Z,101647.00
2018-10-01T17:37:53.230Z,101645.00
2018-10-01T17:42:46.486Z,101650.00
2018-10-01T17:47:40.030Z,101667.00
2018-10-01T17:52:33.267Z,101661.00
2018-10-01T17:57:26.895Z,101686.00
2018-10-01T18:02:20.314Z,101678.00
2018-10-01T18:07:13.866Z,101691.00
2018-10-01T18:12:07.117Z,101695.00
2018-10-01T18:17:00.400Z,101697.00
2018-10-01T18:21:53.699Z,101702.00
2018-10-01T18:26:46.926Z,101707.00
2018-10-01T18:31:40.293Z,101719.00
2018-10-01T18:36:33.591Z,101722.00
2018-10-01T18:41:26.951Z,101731.00
2018-10-01T18:46:20.286Z,101725.00
2018-10-01T18:51:14.249Z,101727.00
2018-10-01T18:56:07.571Z,101734.00
2018-10-01T19:01:00.915Z,101733.00
2018-10-01T19:05:55.183Z,101732.00
2018-10-01T19:10:49.804Z,101740.00
2018-10-01T19:15:43.239Z,101734.00
2018-10-01T19:20:36.487Z,101737.00
2018-10-01T19:25:30.502Z,101735.00
2018-10-01T19:30:23.828Z,101736.00
2018-10-01T19:35:17.059Z,101739.00
2018-10-01T19:40:10.309Z,101743.00
2018-10-01T19:45:03.672Z,101741.00
2018-10-01T19:49:56.890Z,101746.00
2018-10-01T19:54:58.340Z,101755.00
2018-10-01T19:59:51.683Z,101756.00
2018-10-01T20:04:45.014Z,101753.00
2018-10-01T20:09:42.595Z,101757.00
2018-10-01T20:14:35.852Z,101764.00
2018-10-01T20:19:29.136Z,101766.00
2018-10-01T20:24:23.232Z,101769.00
2018-10-01T20:29:16.529Z,101767.00
2018-10-01T20:34:09.744Z,101763.00
2018-10-01T20:39:04.947Z,101773.00
2018-10-01T20:44:14.319Z,101767.00
2018-10-01T20:49:07.558Z,101773.00
2018-10-01T20:54:00.878Z,101769.00
2018-10-01T20:58:54.202Z,101762.00
2018-10-01T21:03:47.469Z,101772.00
2018-10-01T21:08:40.878Z,101770.00
2018-10-01T21:13:34.192Z,101771.00
2018-10-01T21:18:27.590Z,101769.00
2018-10-01T21:23:21.015Z,101768.00
2018-10-01T21:28:28.822Z,101767.00
2018-10-01T21:33:24.801Z,101763.00
2018-10-01T21:38:18.033Z,101772.00
2018-10-01T21:43:11.308Z,101765.00
2018-10-01T21:48:04.551Z,101759.00
2018-10-01T21:52:57.832Z,101761.00
2018-10-01T21:57:51.226Z,101763.00
2018-10-01T22:02:44.493Z,101764.00
2018-10-01T22:07:38.031Z,101762.00
2018-10-01T22:12:31.309Z,101768.00
2018-10-01T22:17:24.583Z,101768.00
2018-10-01T22:22:17.868Z,101763.00
2018-10-01T22:27:11.264Z,101769.00
2018-10-01T22:32:04.571Z,101762.00
2018-10-01T22:36:58.074Z,101763.00
2018-10-01T22:41:52.034Z,101763.00
2018-10-01T22:46:45.929Z,101754.00
2018-10-01T22:51:39.211Z,101746.00
2018-10-01T22:56:32.646Z,101745.00
2018-10-01T23:01:26.113Z,101738.00
2018-10-01T23:06:19.385Z,101743.00
2018-10-01T23:11:12.645Z,101745.00
2018-10-01T23:16:05.910Z,101743.00
2018-10-01T23:20:59.219Z,101742.00
2018-10-01T23:25:52.808Z,101747.00
2018-10-01T23:30:46.083Z,101746.00
2018-10-01T23:35:39.289Z,101751.00
2018-10-01T23:40:32.506Z,101748.00
2018-10-01T23:45:25.786Z,101750.00
2018-10-01T23:50:19.732Z,101750.00
2018-10-01T23:55:12.969Z,101751.00
